This is the latest recevied weather packets stored in our database for station/object KK4MOR. If no packets are shown the sender has not sent any weather packets the latest 10 day(s).
| Time | Temp. | Humidity | Pressure | Rain* | Wind** | Luminosity | Snow |
|---|---|---|---|---|---|---|---|
| 1788532237 | 29.44° C | 75% | 1014.1 hPa | 0 mm | - | - | - |
| 1788531348 | 28.33° C | 78% | 1013.8 hPa | 0 mm | - | - | - |
| 1788530428 | 27.78° C | 83% | 1013.9 hPa | 0 mm | - | - | - |
| 1788529524 | 26.67° C | 87% | 1013.9 hPa | 0 mm | - | - | - |
| 1788528623 | 25° C | 91% | 1013.9 hPa | 0 mm | - | - | - |
| 1788527716 | 24.44° C | 95% | 1013.8 hPa | 0 mm | - | - | - |
| 1788526813 | 23.89° C | 97% | 1013.7 hPa | 0 mm | - | - | - |
| 1788525911 | 23.33° C | 97% | 1013.7 hPa | 0 mm | - | - | - |
| 1788525011 | 22.78° C | 98% | 1013.7 hPa | 0 mm | - | - | - |
| 1788524107 | 22.22° C | 97% | 1013.3 hPa | 0 mm | - | - | - |
| 1788523210 | 21.67° C | 97% | 1013.4 hPa | 0 mm | - | - | - |
| 1788522307 | 21.67° C | 97% | 1013.4 hPa | 0 mm | - | - | - |
| 1788521417 | 21.67° C | 97% | 1013.3 hPa | 0 mm | - | - | - |
| 1788520504 | 21.67° C | 96% | 1013.1 hPa | 0 mm | - | - | - |
| 1788519659 | 22.22° C | 97% | 1012.9 hPa | 0 mm | - | - | - |
| 1788518758 | 22.22° C | 97% | 1012.8 hPa | 0 mm | - | - | - |
| 1788517858 | 22.22° C | 96% | 1012.7 hPa | 0 mm | - | - | - |
| 1788516956 | 22.22° C | 97% | 1012.6 hPa | 0 mm | - | - | - |
| 1788516064 | 22.22° C | 96% | 1012.8 hPa | 0 mm | - | - | - |
| 1788515155 | 22.22° C | 96% | 1012.6 hPa | 0 mm | - | - | - |
| 1788514258 | 22.22° C | 96% | 1012.5 hPa | 0 mm | - | - | - |
| 1788513353 | 22.22° C | 96% | 1012.4 hPa | 0 mm | - | - | - |
| 1788512454 | 22.22° C | 96% | 1012.3 hPa | 0 mm | - | - | - |
| 1788511552 | 22.22° C | 96% | 1012.2 hPa | 0 mm | - | - | - |
| 1788510651 | 22.22° C | 96% | 1012.2 hPa | 0 mm | - | - | - |
* Rain latest hour (hover to see other rain measurements)
** Current wind speed in m/s (hover to see current wind gust speed)